Terminal Aerodrome Forecast
Issued by NWS Pendleton, OR

Home | Current Version | Previous Version | Text Only | Print | Product List | Glossary On
Versions: 1 2 3 4 5 6 7 8 9 10 11 12 13 14 15
000
FTUS46 KPDT 221959 AAA
TAFPDT
TAF AMD
KPDT 221959Z 2220/2318 05009KT P6SM FEW080
     FM230400 14006KT P6SM SCT080
     FM231500 VRB04KT P6SM SCT080=

USA.gov is the U.S. government's official web portal to all federal, state and local government web resources and services.